Time;durP1;ratioP1;P1;durP2;ratioP2;P2;SDS_P1;SDS_P2;PMS_P1;PMS_P2;Temp;Humidity;BMP_temperature;BMP_pressure;BME280_temperature;BME280_humidity;BME280_pressure;Samples;Min_cycle;Max_cycle;Signal;HPM_P1;HPM_P2
2022/04/02 00:00:28;;;;;;;5.28;4.78;;;;;;;1.05;100.00;101506.78;5226248;28;20029;-81
2022/04/02 00:02:59;;;;;;;5.63;5.22;;;;;;;0.96;100.00;101492.72;5227160;28;20017;-81
2022/04/02 00:05:29;;;;;;;5.20;4.82;;;;;;;0.65;100.00;101432.44;5230744;28;20029;-82
2022/04/02 00:08:00;;;;;;;4.13;3.92;;;;;;;1.02;100.00;101508.78;5230542;28;20079;-82
2022/04/02 00:10:31;;;;;;;5.25;4.60;;;;;;;0.91;100.00;101479.13;5230618;28;20033;-82
2022/04/02 00:13:01;;;;;;;5.07;4.78;;;;;;;0.83;100.00;101460.59;5229617;28;20073;-82
2022/04/02 00:15:32;;;;;;;4.97;4.68;;;;;;;1.09;100.00;101508.91;5228156;28;20036;-84
2022/04/02 00:18:02;;;;;;;5.20;4.90;;;;;;;1.09;100.00;101514.22;5228714;28;20021;-82
2022/04/02 00:20:32;;;;;;;9.43;4.57;;;;;;;0.92;100.00;101483.44;5212133;28;20025;-81
2022/04/02 00:25:52;;;;;;;5.88;5.55;;;;;;;0.72;100.00;101458.31;5228116;28;20140;-82
2022/04/02 00:28:23;;;;;;;3.83;3.63;;;;;;;1.07;100.00;101502.13;5210188;28;20033;-82
2022/04/02 00:30:53;;;;;;;5.10;4.80;;;;;;;0.59;100.00;101425.19;5227669;28;20037;-82
2022/04/02 00:33:23;;;;;;;3.97;3.67;;;;;;;1.01;100.00;101499.16;5224762;28;20025;-82
2022/04/02 00:35:54;;;;;;;3.22;3.13;;;;;;;0.90;100.00;101498.72;5208908;28;20045;-82
2022/04/02 00:38:25;;;;;;;5.15;4.65;;;;;;;0.45;100.00;101433.94;5211394;28;20039;-82
2022/04/02 00:40:56;;;;;;;4.80;4.50;;;;;;;0.84;100.00;101499.47;5209987;28;20031;-83
2022/04/02 00:43:38;;;;;;;5.97;5.57;;;;;;;0.53;100.00;101468.44;5225514;28;20029;-82
2022/04/02 00:46:12;;;;;;;4.80;4.50;;;;;;;0.71;100.00;101496.53;5226595;28;20032;-83
2022/04/02 00:48:43;;;;;;;6.68;6.18;;;;;;;0.77;100.00;101499.34;5209164;28;20033;-82
2022/04/02 00:51:15;;;;;;;4.65;4.45;;;;;;;0.49;100.00;101458.31;5210524;28;20005;-82
2022/04/02 00:53:51;;;;;;;5.47;3.97;;;;;;;0.64;100.00;101491.91;5227466;28;20064;-83
2022/04/02 00:56:22;;;;;;;7.50;4.88;;;;;;;0.42;100.00;101452.88;5211456;28;20097;-82
2022/04/02 00:58:52;;;;;;;4.65;4.35;;;;;;;0.33;100.00;101437.97;5229100;28;20030;-82
2022/04/02 01:01:23;;;;;;;6.32;5.88;;;;;;;0.54;100.00;101477.22;5211145;28;20094;-82
2022/04/02 01:03:53;;;;;;;4.60;4.40;;;;;;;0.38;100.00;101456.03;5209856;28;20044;-82
2022/04/02 01:06:25;;;;;;;5.05;4.65;;;;;;;0.59;100.00;101504.91;5210281;28;20029;-82
2022/04/02 01:08:56;;;;;;;4.80;4.40;;;;;;;0.48;100.00;101481.41;5227087;28;20026;-82
2022/04/02 01:11:41;;;;;;;5.60;5.15;;;;;;;0.32;100.00;101462.88;5227713;28;20083;-83
2022/04/02 01:14:12;;;;;;;6.40;5.80;;;;;;;0.34;100.00;101471.50;5226673;28;20040;-82
2022/04/02 01:16:42;;;;;;;5.07;4.78;;;;;;;0.39;100.00;101479.78;5229538;28;20053;-82
2022/04/02 01:19:13;;;;;;;5.43;5.13;;;;;;;0.40;100.00;101485.94;5232408;28;20045;-82
2022/04/02 01:21:48;;;;;;;5.28;4.88;;;;;;;0.26;100.00;101480.38;5231873;28;20218;-82
2022/04/02 01:24:18;;;;;;;5.47;5.25;;;;;;;0.00;100.00;101442.66;5211271;28;20029;-83
2022/04/02 01:26:49;;;;;;;5.13;4.82;;;;;;;0.31;100.00;101495.75;5211957;28;20048;-83
2022/04/02 01:29:19;;;;;;;5.68;5.38;;;;;;;0.04;100.00;101457.19;5228944;28;20033;-82
2022/04/02 01:31:50;;;;;;;6.70;6.18;;;;;;;-0.09;100.00;101447.16;5227080;28;20013;-83
2022/04/02 01:34:21;;;;;;;6.20;4.38;;;;;;;-0.04;100.00;101457.25;5228217;28;20081;-82
2022/04/02 01:36:51;;;;;;;5.18;4.78;;;;;;;0.12;100.00;101485.56;5228340;28;20025;-83
2022/04/02 01:39:22;;;;;;;5.07;4.80;;;;;;;0.06;100.00;101499.53;5212201;28;20109;-82
2022/04/02 01:41:52;;;;;;;6.43;5.82;;;;;;;-0.09;100.00;101467.56;5230729;28;20370;-82
2022/04/02 01:44:23;;;;;;;5.05;4.78;;;;;;;0.13;100.00;101500.50;5231536;28;20021;-83
2022/04/02 01:46:53;;;;;;;5.60;5.20;;;;;;;0.04;100.00;101504.16;5232003;28;20412;-82
2022/04/02 01:49:24;;;;;;;4.93;4.53;;;;;;;0.00;100.00;101496.53;5214742;28;20017;-82
2022/04/02 01:51:54;;;;;;;8.40;5.65;;;;;;;0.00;100.00;101504.50;5230789;28;20028;-82
2022/04/02 01:54:25;;;;;;;5.50;5.20;;;;;;;-0.01;100.00;101510.84;5231517;28;20081;-82
2022/04/02 01:56:55;;;;;;;5.50;5.05;;;;;;;-0.10;100.00;101497.75;5232191;28;20032;-82
2022/04/02 01:59:26;;;;;;;4.53;4.25;;;;;;;-0.10;100.00;101495.09;5214568;28;20072;-82
2022/04/02 02:01:57;;;;;;;4.57;4.38;;;;;;;0.08;100.00;101524.91;5231241;28;20086;-82
2022/04/02 02:04:28;;;;;;;6.68;4.15;;;;;;;0.07;100.00;101515.28;5231477;28;20032;-82
2022/04/02 02:06:59;;;;;;;4.88;4.60;;;;;;;0.14;100.00;101529.53;5228458;28;20033;-82
2022/04/02 02:09:29;;;;;;;4.07;3.97;;;;;;;-0.20;100.00;101471.41;5227976;28;20056;-82
2022/04/02 02:12:01;;;;;;;5.38;5.07;;;;;;;0.13;100.00;101516.44;5209893;28;20026;-82
2022/04/02 02:14:32;;;;;;;5.10;4.88;;;;;;;0.06;100.00;101510.13;5209701;28;20026;-82
2022/04/02 02:17:02;;;;;;;4.88;4.68;;;;;;;-0.07;100.00;101498.25;5227282;28;20021;-82
2022/04/02 02:19:33;;;;;;;5.97;5.65;;;;;;;0.12;100.00;101504.97;5209729;28;20026;-82
2022/04/02 02:22:04;;;;;;;5.90;5.53;;;;;;;0.13;100.00;101511.13;5227840;28;20029;-82
2022/04/02 02:24:35;;;;;;;4.55;4.30;;;;;;;0.05;100.00;101503.16;5209422;28;20079;-81
2022/04/02 02:27:07;;;;;;;8.32;5.47;;;;;;;-0.29;100.00;101450.38;5226079;28;20056;-81
2022/04/02 02:29:38;;;;;;;4.85;4.55;;;;;;;0.09;100.00;101515.09;5227139;28;20032;-81
2022/04/02 02:32:08;;;;;;;7.07;5.10;;;;;;;0.15;100.00;101527.72;5209227;28;20060;-81
2022/04/02 02:37:30;;;;;;;5.53;5.18;;;;;;;-0.19;100.00;101475.72;5227017;28;20155;-82
2022/04/02 02:40:00;;;;;;;4.70;4.40;;;;;;;-0.06;100.00;101489.28;5226733;28;20090;-81
2022/04/02 02:42:31;;;;;;;5.65;5.22;;;;;;;-0.08;100.00;101488.63;5209603;28;20021;-81
2022/04/02 02:45:02;;;;;;;4.45;4.25;;;;;;;0.13;100.00;101521.75;5227147;28;20036;-80
2022/04/02 02:47:32;;;;;;;5.80;4.50;;;;;;;0.11;100.00;101518.44;5209035;28;20333;-82
2022/04/02 02:50:03;;;;;;;4.63;4.32;;;;;;;-0.05;100.00;101496.25;5227433;28;20050;-81
2022/04/02 02:52:34;;;;;;;5.40;5.10;;;;;;;0.14;100.00;101528.72;5226437;28;20081;-82
2022/04/02 02:55:05;;;;;;;5.53;5.22;;;;;;;0.08;100.00;101529.38;5226395;28;20037;-82
2022/04/02 02:57:40;;;;;;;3.83;3.58;;;;;;;-0.27;100.00;101482.84;5226899;28;20052;-81
2022/04/02 03:00:12;;;;;;;5.20;4.90;;;;;;;0.13;100.00;101532.38;5225706;28;20025;-81
2022/04/02 03:02:42;;;;;;;6.93;4.30;;;;;;;0.08;100.00;101535.53;5226838;28;20459;-81
2022/04/02 03:05:15;;;;;;;6.38;4.40;;;;;;;-0.14;100.00;101517.69;5226463;28;20077;-81
2022/04/02 03:07:50;;;;;;;4.57;4.28;;;;;;;0.01;100.00;101545.16;5210172;28;20032;-82
2022/04/02 03:10:23;;;;;;;5.07;4.78;;;;;;;-0.25;100.00;101496.78;5227385;28;20036;-82
2022/04/02 03:12:55;;;;;;;6.15;5.65;;;;;;;-0.19;100.00;101498.78;5210163;28;20088;-82
2022/04/02 03:15:27;;;;;;;4.43;4.13;;;;;;;-0.25;100.00;101492.31;5226936;28;20029;-81
2022/04/02 03:18:03;;;;;;;5.63;5.15;;;;;;;-0.26;100.00;101493.31;5227119;28;20025;-81
2022/04/02 03:20:37;;;;;;;4.13;3.92;;;;;;;-0.05;100.00;101522.81;5226974;28;20030;-82
2022/04/02 03:23:09;;;;;;;10.50;5.50;;;;;;;-0.18;100.00;101495.94;5225429;28;20043;-82
2022/04/02 03:25:39;;;;;;;4.50;4.13;;;;;;;-0.32;100.00;101478.09;5208683;28;20056;-82
2022/04/02 03:28:10;;;;;;;5.43;5.13;;;;;;;-0.15;100.00;101494.78;5224300;22;20069;-82
2022/04/02 03:30:40;;;;;;;4.45;4.25;;;;;;;-0.22;100.00;101489.31;5185849;28;20033;-81
2022/04/02 03:33:10;;;;;;;5.22;4.95;;;;;;;0.08;100.00;101538.19;5170972;28;20026;-82
2022/04/02 03:35:44;;;;;;;5.60;5.30;;;;;;;0.05;100.00;101530.56;5208016;28;20100;-82
2022/04/02 03:38:14;;;;;;;6.88;4.82;;;;;;;0.11;100.00;101547.63;5206168;28;20028;-82
2022/04/02 03:40:45;;;;;;;5.72;5.22;;;;;;;0.10;100.00;101538.84;5207744;28;20025;-81
2022/04/02 03:43:15;;;;;;;4.88;4.47;;;;;;;0.10;100.00;101532.69;5207772;28;20163;-82
2022/04/02 03:45:46;;;;;;;4.40;4.20;;;;;;;0.09;100.00;101521.25;5189976;28;20078;-82
2022/04/02 03:48:16;;;;;;;4.60;4.40;;;;;;;0.16;100.00;101537.34;5207915;28;20431;-81
2022/04/02 03:50:46;;;;;;;5.95;5.55;;;;;;;0.23;100.00;101547.09;5189705;28;20060;-83
2022/04/02 03:53:17;;;;;;;5.68;4.07;;;;;;;-0.01;100.00;101507.38;5207011;28;20473;-84
2022/04/02 03:55:48;;;;;;;5.00;4.80;;;;;;;0.24;100.00;101553.25;5190019;28;20396;-83
2022/04/02 03:58:18;;;;;;;4.78;4.47;;;;;;;0.25;100.00;101547.78;5207751;28;20017;-81
2022/04/02 04:00:48;;;;;;;7.88;5.13;;;;;;;0.24;100.00;101547.94;5207690;28;20097;-81
2022/04/02 04:03:19;;;;;;;5.03;4.05;;;;;;;0.10;100.00;101527.38;5206808;28;20048;-82
2022/04/02 04:05:50;;;;;;;5.15;4.85;;;;;;;0.28;100.00;101557.22;5189497;28;20100;-83
2022/04/02 04:08:20;;;;;;;5.18;4.63;;;;;;;0.24;100.00;101553.25;5207415;28;20018;-81
2022/04/02 04:10:50;;;;;;;4.65;4.35;;;;;;;0.27;100.00;101556.41;5207569;28;20485;-81
2022/04/02 04:13:21;;;;;;;6.68;5.28;;;;;;;0.16;100.00;101540.00;5206943;28;20040;-83
2022/04/02 04:15:51;;;;;;;5.20;4.90;;;;;;;0.02;100.00;101527.41;5207205;28;20057;-81
2022/04/02 04:18:22;;;;;;;5.20;4.88;;;;;;;0.07;100.00;101557.75;5205898;28;20022;-81
2022/04/02 04:20:52;;;;;;;5.05;4.80;;;;;;;-0.12;100.00;101528.94;5207568;28;20026;-83
2022/04/02 04:23:23;;;;;;;4.22;3.90;;;;;;;0.07;100.00;101556.94;5189567;28;20064;-82
2022/04/02 04:25:54;;;;;;;5.63;5.13;;;;;;;0.02;100.00;101546.00;5207376;28;20458;-83
2022/04/02 04:28:25;;;;;;;5.60;5.35;;;;;;;0.04;100.00;101562.59;5207305;28;20036;-83
2022/04/02 04:30:55;;;;;;;4.88;4.57;;;;;;;-0.03;100.00;101547.34;5206009;28;20478;-83
2022/04/02 04:33:25;;;;;;;3.80;3.60;;;;;;;-0.24;100.00;101506.41;5207675;28;20030;-81
2022/04/02 04:35:56;;;;;;;5.10;4.75;;;;;;;0.08;100.00;101567.38;5206681;28;20025;-82
2022/04/02 04:38:26;;;;;;;4.78;4.57;;;;;;;-0.10;100.00;101549.03;5207421;28;20374;-83
2022/04/02 04:40:56;;;;;;;4.82;4.43;;;;;;;0.12;100.00;101583.81;5207232;28;20052;-80
2022/04/02 04:43:27;;;;;;;4.30;4.10;;;;;;;0.07;100.00;101564.91;5206800;28;20026;-81
2022/04/02 04:45:58;;;;;;;4.35;4.15;;;;;;;-0.10;100.00;101538.41;5206826;28;20033;-84
2022/04/02 04:48:28;;;;;;;4.22;4.03;;;;;;;-0.15;100.00;101553.19;5207237;28;20029;-81
2022/04/02 04:50:59;;;;;;;5.18;4.70;;;;;;;0.08;100.00;101590.47;5209879;28;20060;-82
2022/04/02 04:53:29;;;;;;;5.25;4.85;;;;;;;-0.03;100.00;101584.53;5193161;28;20489;-81
2022/04/02 04:56:00;;;;;;;4.72;4.43;;;;;;;0.10;100.00;101602.56;5211440;28;20021;-82
2022/04/02 04:58:30;;;;;;;4.22;4.03;;;;;;;0.06;100.00;101600.41;5211027;28;20053;-83
2022/04/02 05:01:01;;;;;;;4.30;4.10;;;;;;;0.05;100.00;101604.06;5210719;28;20052;-83
2022/04/02 05:03:32;;;;;;;5.28;4.90;;;;;;;-0.22;100.00;101563.63;5210126;28;20145;-81
2022/04/02 05:06:03;;;;;;;5.55;4.53;;;;;;;-0.29;100.00;101540.63;5211026;28;20105;-80
2022/04/02 05:08:34;;;;;;;4.90;4.63;;;;;;;-0.12;100.00;101566.94;5211041;28;20064;-81
2022/04/02 05:11:04;;;;;;;3.95;3.65;;;;;;;0.18;100.00;101615.84;5210633;28;20049;-81
2022/04/02 05:13:35;;;;;;;3.92;3.78;;;;;;;0.20;100.00;101618.34;5210658;28;20029;-81
2022/04/02 05:16:05;;;;;;;4.93;4.55;;;;;;;0.21;100.00;101620.81;5210775;28;20032;-83
2022/04/02 05:18:36;;;;;;;4.47;4.28;;;;;;;-0.02;100.00;101583.53;5210413;28;20029;-80
2022/04/02 05:21:06;;;;;;;4.15;3.95;;;;;;;0.07;100.00;101599.41;5210424;28;20056;-79
2022/04/02 05:23:37;;;;;;;4.30;4.10;;;;;;;0.09;100.00;101621.34;5193571;28;20029;-79
2022/04/02 05:26:08;;;;;;;5.15;4.90;;;;;;;0.12;100.00;101627.13;5216794;28;20025;-78
2022/04/02 05:28:38;;;;;;;5.10;4.60;;;;;;;0.07;100.00;101616.19;5215281;28;20076;-83
2022/04/02 05:31:09;;;;;;;4.82;4.63;;;;;;;0.20;100.00;101643.06;5216361;28;20025;-80
2022/04/02 05:33:40;;;;;;;5.30;5.00;;;;;;;-0.03;100.00;101619.03;5194441;28;20501;-82
2022/04/02 05:36:10;;;;;;;4.03;3.83;;;;;;;0.12;100.00;101653.69;5212438;28;20026;-84
2022/04/02 05:38:41;;;;;;;4.90;4.70;;;;;;;0.06;100.00;101646.38;5212856;28;20465;-81
2022/04/02 05:41:30;;;;;;;5.25;4.75;;;;;;;-0.05;100.00;101636.13;5211566;28;20029;-84
2022/04/02 05:44:01;;;;;;;4.70;4.50;;;;;;;-0.20;100.00;101619.22;5192904;28;20117;-83
2022/04/02 05:46:31;;;;;;;5.78;5.35;;;;;;;0.02;100.00;101658.34;5211622;28;20052;-83
2022/04/02 05:49:02;;;;;;;4.57;4.28;;;;;;;0.13;100.00;101670.47;5213271;28;20448;-80
2022/04/02 05:51:35;;;;;;;4.95;4.55;;;;;;;0.13;100.00;101683.72;5197543;28;20036;-81
2022/04/02 05:54:06;;;;;;;4.47;4.28;;;;;;;0.08;100.00;101678.09;5209754;28;20083;-82
2022/04/02 05:56:37;;;;;;;4.32;4.13;;;;;;;0.00;100.00;101668.31;5192548;28;20026;-81
2022/04/02 05:59:08;;;;;;;4.28;4.07;;;;;;;0.09;100.00;101687.72;5209676;28;20064;-82
2022/04/02 06:01:38;;;;;;;5.43;5.13;;;;;;;0.08;100.00;101694.03;5208526;28;20053;-81
2022/04/02 06:04:09;;;;;;;5.47;5.05;;;;;;;-0.06;100.00;101674.31;5209424;28;20081;-81
2022/04/02 06:06:40;;;;;;;6.65;4.93;;;;;;;-0.28;100.00;101635.13;5209814;28;20425;-81
2022/04/02 06:09:11;;;;;;;4.05;3.78;;;;;;;-0.26;100.00;101644.59;5191614;28;20026;-84
2022/04/02 06:11:41;;;;;;;5.10;4.88;;;;;;;-0.15;100.00;101668.16;5209770;28;20021;-83
2022/04/02 06:14:13;;;;;;;5.28;4.78;;;;;;;-0.06;100.00;101680.44;5209242;28;20087;-81
2022/04/02 06:16:43;;;;;;;5.32;4.95;;;;;;;0.06;100.00;101706.63;5208120;28;20084;-82
2022/04/02 06:19:17;;;;;;;4.97;4.72;;;;;;;0.12;100.00;101695.34;5210032;28;20021;-82
2022/04/02 06:21:48;;;;;;;4.57;4.38;;;;;;;-0.13;100.00;101663.50;5210002;28;20013;-82
2022/04/02 06:24:18;;;;;;;5.00;4.60;;;;;;;0.17;100.00;101693.03;5209409;28;20687;-81
2022/04/02 06:26:48;;;;;;;4.82;4.63;;;;;;;-0.07;100.00;101648.75;5209312;28;20044;-81
2022/04/02 06:29:31;;;;;;;5.45;5.10;;;;;;;0.20;100.00;101682.06;5209360;28;20057;-84
2022/04/02 06:32:01;;;;;;;5.25;4.95;;;;;;;0.44;100.00;101726.38;5215083;28;20072;-81
2022/04/02 06:34:32;;;;;;;8.57;4.82;;;;;;;0.30;100.00;101688.84;5215204;28;20029;-82
2022/04/02 06:37:02;;;;;;;4.82;4.53;;;;;;;0.58;100.00;101729.16;5209282;28;20021;-81
2022/04/02 06:39:33;;;;;;;4.40;4.20;;;;;;;0.66;100.00;101731.78;5208956;28;20064;-82
2022/04/02 06:42:04;;;;;;;5.22;4.72;;;;;;;0.72;100.00;101724.16;5209284;28;20565;-82
2022/04/02 06:44:34;;;;;;;4.28;4.03;;;;;;;0.77;100.00;101729.78;5208560;28;20045;-84
2022/04/02 06:47:05;;;;;;;6.45;6.00;;;;;;;0.92;100.00;101730.72;5208977;28;20168;-85
2022/04/02 06:49:35;;;;;;;5.13;4.82;;;;;;;0.98;100.00;101746.84;5191372;28;20021;-82
2022/04/02 06:52:06;;;;;;;4.82;4.55;;;;;;;1.11;100.00;101748.13;5209179;28;20212;-82
2022/04/02 06:54:36;;;;;;;6.25;5.72;;;;;;;1.19;100.00;101746.25;5207805;28;20029;-82
2022/04/02 06:57:07;;;;;;;3.90;3.70;;;;;;;1.30;100.00;101753.03;5191163;28;20053;-86
2022/04/02 06:59:37;;;;;;;4.68;4.47;;;;;;;1.36;100.00;101744.34;5190560;28;20029;-84
2022/04/02 07:02:07;;;;;;;5.25;4.85;;;;;;;1.52;100.00;101754.06;5207404;28;20044;-83
2022/04/02 07:05:34;;;;;;;4.55;4.28;;;;;;;1.64;100.00;101761.50;5207090;28;20028;-81
2022/04/02 07:08:04;;;;;;;8.57;5.15;;;;;;;1.33;100.00;101679.00;5198228;28;20033;-82
2022/04/02 07:10:35;;;;;;;4.57;4.38;;;;;;;1.56;100.00;101696.81;5170426;28;20034;-81
2022/04/02 07:13:05;;;;;;;4.63;4.28;;;;;;;2.06;100.00;101757.53;5170693;28;20037;-82
2022/04/02 07:15:35;;;;;;;4.28;4.07;;;;;;;2.06;100.00;101735.41;5171432;28;20161;-83
2022/04/02 07:18:08;;;;;;;4.00;3.90;;;;;;;2.26;100.00;101757.91;5188949;28;20139;-82
2022/04/02 07:20:39;;;;;;;4.20;4.00;;;;;;;2.41;100.00;101774.75;5171482;28;20022;-82
2022/04/02 07:23:10;;;;;;;4.32;4.13;;;;;;;2.53;100.00;101775.16;5188833;28;20026;-80
2022/04/02 07:25:40;;;;;;;4.18;3.92;;;;;;;2.20;100.00;101703.50;5171300;28;20088;-81
2022/04/02 07:28:11;;;;;;;4.82;4.53;;;;;;;2.61;100.00;101770.56;5207226;28;20025;-83
2022/04/02 07:30:41;;;;;;;4.50;4.20;;;;;;;2.60;100.00;101760.09;5190744;28;20128;-81
2022/04/02 07:33:12;;;;;;;4.47;4.22;;;;;;;2.85;100.00;101774.00;5208780;28;20028;-84
2022/04/02 07:36:10;;;;;;;4.15;3.95;;;;;;;3.02;100.00;101772.81;5191780;28;20034;-82
2022/04/02 07:38:59;;;;;;;4.60;4.30;;;;;;;3.03;100.00;101783.31;5191661;28;20028;-82
2022/04/02 07:41:48;;;;;;;5.27;4.97;;;;;;;3.05;100.00;101781.28;5208297;28;20108;-83
2022/04/02 07:44:28;;;;;;;5.90;5.28;;;;;;;3.13;100.00;101788.38;5189975;28;20260;-82
2022/04/02 07:46:59;;;;;;;5.35;4.95;;;;;;;2.69;100.00;101722.47;5208936;28;20089;-82
2022/04/02 07:49:30;;;;;;;6.65;4.60;;;;;;;3.16;100.00;101796.00;5191540;28;20033;-82
2022/04/02 07:52:02;;;;;;;3.83;3.63;;;;;;;2.97;100.00;101762.69;5208831;28;20025;-82
2022/04/02 07:54:37;;;;;;;5.15;4.47;;;;;;;3.08;100.00;101789.94;5210325;28;20029;-81
2022/04/02 07:57:09;;;;;;;4.68;4.47;;;;;;;3.19;100.00;101792.13;5211753;28;20022;-81
2022/04/02 07:59:42;;;;;;;4.63;4.22;;;;;;;3.20;100.00;101799.13;5212040;28;20025;-81
2022/04/02 08:05:03;;;;;;;4.38;4.18;;;;;;;3.32;100.00;101782.47;5211546;28;20107;-81
2022/04/02 08:07:35;;;;;;;4.45;4.15;;;;;;;3.34;100.00;101795.63;5210742;28;20021;-81
2022/04/02 08:10:08;;;;;;;4.35;3.95;;;;;;;3.25;100.00;101786.06;5191822;28;20595;-81
2022/04/02 08:12:40;;;;;;;3.20;3.10;;;;;;;3.43;100.00;101807.03;5203459;28;20029;-81
2022/04/02 08:15:30;;;;;;;3.92;3.72;;;;;;;3.41;100.00;101809.06;5202157;28;20421;-81
2022/04/02 08:18:01;;;;;;;;;;;;;;;3.51;100.00;101804.25;5210949;28;20026;-80
2022/04/02 08:20:32;;;;;;;4.10;3.90;;;;;;;3.63;100.00;101814.28;5193216;28;20262;-81
2022/04/02 08:23:02;;;;;;;4.45;4.13;;;;;;;3.80;100.00;101812.22;5221694;28;20112;-80
2022/04/02 08:25:35;;;;;;;6.57;4.05;;;;;;;3.83;100.00;101811.84;5220712;28;20024;-81
2022/04/02 08:28:53;;;;;;;5.03;4.57;;;;;;;3.65;100.00;101804.25;5217198;28;20112;-81
2022/04/02 08:31:45;;;;;;;3.70;3.50;;;;;;;3.67;100.00;101814.75;5216818;28;20125;-81
2022/04/02 08:34:39;;;;;;;4.28;3.85;;;;;;;3.78;100.00;101816.91;5215147;28;20099;-81
2022/04/02 08:37:10;;;;;;;4.05;3.85;;;;;;;3.82;100.00;101820.88;5216972;28;20018;-81
2022/04/02 08:39:59;;;;;;;4.40;4.10;;;;;;;3.90;100.00;101822.59;5198223;28;20053;-80
2022/04/02 08:42:41;;;;;;;4.50;4.05;;;;;;;3.85;100.00;101806.31;5197466;28;20389;-81
2022/04/02 08:45:13;;;;;;;4.78;3.90;;;;;;;4.02;100.00;101831.78;5215489;28;20089;-82
2022/04/02 08:47:46;;;;;;;5.53;5.00;;;;;;;3.97;100.00;101836.88;5215692;28;20400;-80
2022/04/02 08:50:17;;;;;;;5.35;4.95;;;;;;;4.04;100.00;101840.44;5214412;28;20032;-81
2022/04/02 08:53:09;;;;;;;5.95;5.30;;;;;;;4.13;100.00;101820.59;5196545;28;20400;-81
2022/04/02 08:55:47;;;;;;;4.65;3.75;;;;;;;4.25;100.00;101843.13;5214653;28;20033;-80
2022/04/02 08:58:49;;;;;;;5.40;5.00;;;;;;;4.41;100.00;101842.88;5214147;28;20071;-80
2022/04/02 09:01:24;;;;;;;4.95;4.65;;;;;;;4.42;100.00;101854.41;5214797;28;20484;-80
2022/04/02 09:04:00;;;;;;;5.18;4.82;;;;;;;4.42;100.00;101849.06;5214287;28;20029;-80
2022/04/02 09:06:42;;;;;;;4.93;4.63;;;;;;;4.43;100.00;101850.72;5213414;28;20033;-80
2022/04/02 09:09:38;;;;;;;6.00;5.25;;;;;;;4.60;100.00;101859.31;5213571;28;20120;-80
2022/04/02 09:12:45;;;;;;;4.50;4.20;;;;;;;4.82;100.00;101854.75;5213271;28;20021;-80
2022/04/02 09:15:30;;;;;;;6.82;4.47;;;;;;;4.49;100.00;101874.03;5214152;28;20041;-80
2022/04/02 09:18:04;;;;;;;5.22;4.82;;;;;;;4.32;100.00;101869.94;5214536;28;20021;-80
2022/04/02 09:20:55;;;;;;;5.22;4.95;;;;;;;4.07;100.00;101838.19;5213211;28;20411;-80
2022/04/02 09:23:49;;;;;;;5.40;4.90;;;;;;;4.38;100.00;101869.16;5212521;28;20033;-80
2022/04/02 09:29:15;;;;;;;5.53;5.03;;;;;;;4.49;100.00;101876.69;5196139;28;20065;-84
2022/04/02 09:32:15;;;;;;;4.05;3.80;;;;;;;4.70;100.00;101876.69;5200415;28;20081;-83
2022/04/02 09:34:45;;;;;;;4.85;4.53;;;;;;;4.76;100.00;101872.41;5114361;28;20062;-84
2022/04/02 09:37:46;;;;;;;4.53;4.22;;;;;;;4.75;100.00;101870.75;5178766;28;20035;-84
2022/04/02 09:40:18;;;;;;;5.03;4.63;;;;;;;4.45;100.00;101827.28;5180472;28;20034;-85
2022/04/02 09:43:00;;;;;;;6.35;5.75;;;;;;;4.92;100.00;101865.94;5177045;28;20019;-85
2022/04/02 09:45:44;;;;;;;5.50;5.03;;;;;;;4.71;100.00;101814.13;5175766;28;20023;-84
2022/04/02 09:48:24;;;;;;;5.40;4.65;;;;;;;5.06;99.43;101840.94;5176001;28;20081;-84
2022/04/02 09:50:58;;;;;;;4.97;4.68;;;;;;;4.59;98.29;101756.00;5177456;28;20033;-84
2022/04/02 09:53:32;;;;;;;4.40;4.18;;;;;;;4.98;97.90;101811.63;5175063;28;20026;-85
2022/04/02 09:56:26;;;;;;;6.10;4.07;;;;;;;5.23;96.76;101828.88;5176824;28;20042;-84
2022/04/02 09:59:05;;;;;;;5.32;4.32;;;;;;;5.58;98.40;101887.81;5159155;28;20037;-84
2022/04/02 10:01:39;;;;;;;5.72;5.32;;;;;;;5.23;96.40;101901.19;5174031;28;20034;-85
2022/04/02 10:04:28;;;;;;;5.78;5.15;;;;;;;4.70;97.81;101900.75;5173950;28;20057;-83
2022/04/02 10:07:03;;;;;;;4.38;4.10;;;;;;;4.44;98.81;101902.34;5157483;28;20026;-82
2022/04/02 10:09:36;;;;;;;5.55;5.25;;;;;;;3.66;100.00;101789.88;5157322;28;20050;-86
2022/04/02 10:12:09;;;;;;;5.78;5.18;;;;;;;4.50;100.00;101882.88;5173958;28;20367;-86
2022/04/02 10:14:41;;;;;;;7.13;5.30;;;;;;;5.14;99.32;101886.31;5177239;28;20058;-84
2022/04/02 10:17:13;;;;;;;5.18;4.88;;;;;;;4.95;97.62;101820.06;5181088;28;20030;-83
2022/04/02 10:19:46;;;;;;;4.93;4.63;;;;;;;5.36;95.08;101845.03;5178674;28;20296;-87
2022/04/02 10:22:20;;;;;;;4.32;4.03;;;;;;;5.18;94.37;101870.69;5181770;28;20045;-86
2022/04/02 10:24:51;;;;;;;5.55;5.05;;;;;;;4.66;94.16;101819.22;5180607;28;20022;-85
2022/04/02 10:27:34;;;;;;;4.93;4.63;;;;;;;5.37;94.70;101883.38;5170525;28;20033;-83
2022/04/02 10:30:10;;;;;;;6.35;5.55;;;;;;;5.36;92.92;101828.97;5205004;28;20026;-84
2022/04/02 10:32:53;;;;;;;5.55;5.25;;;;;;;6.02;92.23;101879.41;5183611;28;20033;-86
2022/04/02 10:35:26;;;;;;;5.32;5.03;;;;;;;6.19;89.08;101895.94;5201805;28;20022;-86
2022/04/02 10:38:18;;;;;;;7.65;5.55;;;;;;;5.96;87.84;101881.03;5203441;28;20021;-86
2022/04/02 10:40:52;;;;;;;3.97;3.83;;;;;;;5.73;86.65;101875.13;5207576;28;20040;-86
2022/04/02 10:43:27;;;;;;;6.90;5.30;;;;;;;5.42;89.36;101873.72;5205358;28;20056;-85
2022/04/02 10:45:58;;;;;;;4.28;4.07;;;;;;;5.13;87.24;101798.16;5188778;28;20022;-84
2022/04/02 10:48:53;;;;;;;4.82;4.53;;;;;;;5.89;87.77;101872.13;5200318;28;20026;-84
2022/04/02 10:51:25;;;;;;;4.65;4.35;;;;;;;6.12;86.21;101871.78;5193651;28;20030;-85
2022/04/02 10:54:08;;;;;;;4.50;4.15;;;;;;;5.53;84.67;101767.84;5195386;28;20030;-85
2022/04/02 10:56:44;;;;;;;5.45;4.97;;;;;;;5.55;83.19;101770.31;5195895;28;20025;-84
2022/04/02 10:59:18;;;;;;;4.88;4.68;;;;;;;5.50;84.12;101807.59;5196910;28;20048;-84
2022/04/02 11:01:53;;;;;;;5.43;4.93;;;;;;;5.43;85.49;101827.16;5203073;28;20029;-84
2022/04/02 11:04:46;;;;;;;4.57;4.28;;;;;;;4.85;87.42;101774.91;5201366;28;20025;-84
2022/04/02 11:07:35;;;;;;;4.50;4.13;;;;;;;5.52;89.25;101845.72;5185424;28;20026;-85
2022/04/02 11:10:06;;;;;;;4.25;3.95;;;;;;;5.55;90.09;101834.63;5185721;28;20034;-84
2022/04/02 11:12:41;;;;;;;5.38;4.25;;;;;;;5.96;86.28;101856.06;5203119;28;20033;-85
2022/04/02 11:15:17;;;;;;;5.13;4.72;;;;;;;5.74;83.59;101863.38;5202535;28;20014;-84
2022/04/02 11:17:53;;;;;;;4.53;4.25;;;;;;;5.74;82.57;101860.69;5178681;28;20088;-84
2022/04/02 11:20:26;;;;;;;4.80;4.50;;;;;;;6.03;81.96;101870.31;5192163;28;20037;-84
2022/04/02 11:23:10;;;;;;;3.75;3.55;;;;;;;5.53;80.39;101773.19;5193911;28;20026;-85
2022/04/02 11:25:52;;;;;;;3.95;3.75;;;;;;;6.40;81.86;101863.59;5174057;28;20096;-84
2022/04/02 11:28:24;;;;;;;4.28;3.97;;;;;;;6.60;78.91;101864.47;5173423;28;20104;-85
2022/04/02 11:31:03;;;;;;;5.47;4.00;;;;;;;6.48;78.06;101841.94;5192135;28;20441;-84
2022/04/02 11:33:50;;;;;;;4.03;3.83;;;;;;;6.40;77.12;101805.41;5190267;28;20485;-84
2022/04/02 11:36:40;;;;;;;4.72;4.32;;;;;;;5.97;75.87;101812.97;5191217;28;20037;-84
2022/04/02 11:39:18;;;;;;;4.70;4.13;;;;;;;5.94;77.80;101807.19;5193504;28;20022;-84
2022/04/02 11:41:56;;;;;;;3.92;3.67;;;;;;;6.14;78.73;101824.13;5174200;28;20026;-84
2022/04/02 11:44:36;;;;;;;4.22;3.95;;;;;;;6.50;77.51;101872.06;5190206;28;20021;-85
2022/04/02 11:47:07;;;;;;;5.68;4.22;;;;;;;6.47;77.45;101867.13;5189871;28;20026;-85
2022/04/02 11:49:40;;;;;;;5.47;5.18;;;;;;;6.11;78.54;101867.44;5190809;28;20516;-85
2022/04/02 11:52:15;;;;;;;6.63;4.50;;;;;;;5.41;80.45;101837.25;5174365;28;20053;-85
2022/04/02 11:54:48;;;;;;;4.20;4.00;;;;;;;5.49;83.04;101886.31;5191548;28;20033;-85
2022/04/02 11:57:19;;;;;;;5.68;5.07;;;;;;;4.99;83.69;101794.56;5191839;28;20025;-85
2022/04/02 11:59:53;;;;;;;4.97;4.57;;;;;;;5.38;83.99;101891.22;5190486;28;20396;-84
2022/04/02 12:02:36;;;;;;;4.55;4.28;;;;;;;5.30;84.80;101894.03;5193192;28;20026;-85
2022/04/02 12:05:09;;;;;;;4.93;4.63;;;;;;;4.89;83.53;101858.31;5193839;28;20026;-85
2022/04/02 12:07:44;;;;;;;5.43;4.93;;;;;;;5.19;84.75;101893.75;5194207;28;20218;-84
2022/04/02 12:10:17;;;;;;;5.10;4.63;;;;;;;5.28;85.89;101853.22;5193523;28;20108;-85